Aérodrome :
LOGIN :

S'inscrire | Disclaimer

   EN    FR    IT 

 










Légende :    VFR   VFR Marginal   IFR   IFR Intensif   IFR Très Intensif
Visi : 
Plafond : 
>= 8 km
>= 3000ft
5 à 8 km
1000 à 3000 ft
1500m à 5 km
500 à 1000 ft
800 à 1500m
200 à 500 ft
< 800m
< 200 ft
Symboles :   Orages  Brouillard  Fortes neiges  Fortes précipitations  Vent > 20 kt
SIGMETs :   Divers  Orages  Givrage  Turbulence  Onde Orograph.  Cendres Volcan.







- Altitude de l'aérodrome : 622 ft
- Code IATA : BRS
- Voir les cartes d'approche


EGGD - Bristol Int.

DERNIER METAR :
  • 150250Z AUTO 14013KT 9999 OVC027 03/00 Q1016

METARs EXPIRÉS :
  • 150220Z AUTO 13011KT 9999 OVC028 03/00 Q1016
  • 150150Z AUTO 12009KT 9999 SCT029 BKN036 02/00 Q1016
  • 150120Z AUTO 12011KT 9999 BKN028 BKN043 02/M00 Q1016
  • 150050Z AUTO 12011KT 9999 SCT047 02/M00 Q1017
  • 150020Z AUTO 12011KT 9999 BKN048 02/M00 Q1017

TAF TAF EGGD
Valide du 15 à 00h jusqu'au 16 à 00h UTC


142254Z 1500/1524 12014KT 9999 SCT020
BECMG 1503/1506 7000 -RA BKN012
TEMPO 1504/1517 4000 RADZ BKN006
BECMG 1506/1509 15020G30KT
PROB40
TEMPO 1510/1517 1200 +RA BKN003
BECMG 1516/1519 25020G30KT 9999 NSW SCT025
TEMPO 1521/1524 7000 SHRA BKN012
ATIS : +44 1275 473 666
Pas de NOTAMs connus pour ce terrain.



MET'MAP, la Météo Aéronautique d'un coup d'oeil ! - Copyright ORBIFLY Décembre 2007 - Disclaimer

ORBIFLY MET'MAP TEAM :

Programmation & Développement : Alexandra Zaïnal
Conception & Développement : Baudouin d'Aumeries
Co-Programmation & Développement : Marc-Olivier Méhu
Soutien technique & logistique : Manuel Goepfert

Contact : metmap@orbifly.com




SOURCES & CREDITS :

   NOAA